Time;durP1;ratioP1;P1;durP2;ratioP2;P2;SDS_P1;SDS_P2;PMS_P1;PMS_P2;Temp;Humidity;BMP_temperature;BMP_pressure;BME280_temperature;BME280_humidity;BME280_pressure;Samples;Min_cycle;Max_cycle;Signal;HPM_P1;HPM_P2
2021/11/25 00:00:10;;;;;;;21.52;13.02;;;;;;;7.60;56.48;101490.97;5038498;28;20049;-66
2021/11/25 00:02:37;;;;;;;24.02;13.10;;;;;;;7.61;56.71;101477.88;5041382;28;20074;-59
2021/11/25 00:05:06;;;;;;;19.95;12.48;;;;;;;7.61;56.92;101469.19;5050907;28;20060;-59
2021/11/25 00:07:33;;;;;;;22.27;12.88;;;;;;;7.61;56.92;101470.03;5044710;28;20402;-59
2021/11/25 00:09:59;;;;;;;20.00;12.52;;;;;;;7.58;57.07;101457.09;5051940;28;20041;-59
2021/11/25 00:12:26;;;;;;;18.42;11.73;;;;;;;7.59;57.24;101455.31;5049384;28;20053;-59
2021/11/25 00:14:53;;;;;;;17.88;11.77;;;;;;;7.58;57.24;101453.59;5048580;28;20562;-58
2021/11/25 00:17:20;;;;;;;15.30;11.63;;;;;;;7.58;57.46;101451.84;5047563;28;20052;-59
2021/11/25 00:19:46;;;;;;;18.17;12.10;;;;;;;7.59;57.41;101452.69;5051304;28;20045;-58
2021/11/25 00:22:13;;;;;;;20.08;12.10;;;;;;;7.55;57.43;101443.25;5053325;28;20489;-65
2021/11/25 00:24:40;;;;;;;15.57;10.40;;;;;;;7.55;57.58;101445.88;5051052;28;20037;-59
2021/11/25 00:27:07;;;;;;;18.33;12.85;;;;;;;7.53;57.58;101448.53;5052737;28;20049;-60
2021/11/25 00:29:34;;;;;;;17.88;11.50;;;;;;;7.52;57.56;101447.66;5053068;28;20052;-58
2021/11/25 00:32:01;;;;;;;16.08;11.10;;;;;;;7.50;57.70;101446.00;5046043;28;20048;-58
2021/11/25 00:34:28;;;;;;;16.25;10.75;;;;;;;7.50;57.79;101446.00;5052982;28;20045;-60
2021/11/25 00:36:54;;;;;;;20.45;11.75;;;;;;;7.51;57.74;101438.13;5053167;28;20048;-59
2021/11/25 00:39:21;;;;;;;15.80;10.38;;;;;;;7.51;57.58;101432.06;5053153;28;20041;-59
2021/11/25 00:41:48;;;;;;;15.35;10.15;;;;;;;7.49;57.51;101431.25;5038822;28;20063;-61
2021/11/25 00:44:16;;;;;;;16.95;10.43;;;;;;;7.48;57.46;101430.41;5052993;28;20037;-59
2021/11/25 00:46:43;;;;;;;15.95;10.30;;;;;;;7.51;57.32;101437.28;5052232;28;20049;-59
2021/11/25 00:49:11;;;;;;;19.10;10.45;;;;;;;7.50;57.32;101433.81;5052781;28;20041;-59
2021/11/25 00:51:38;;;;;;;17.65;10.23;;;;;;;7.50;56.94;101428.59;5052963;28;20041;-58
2021/11/25 00:54:04;;;;;;;18.38;10.32;;;;;;;7.50;56.94;101427.72;5052694;28;20067;-58
2021/11/25 00:56:31;;;;;;;14.73;9.55;;;;;;;7.48;56.97;101429.56;5052792;28;20045;-59
2021/11/25 00:58:58;;;;;;;15.43;9.05;;;;;;;7.49;57.04;101431.25;5052859;28;20049;-58
2021/11/25 01:01:24;;;;;;;14.32;8.80;;;;;;;7.48;56.57;101433.00;5052653;28;20055;-59
2021/11/25 01:03:51;;;;;;;14.57;8.68;;;;;;;7.45;56.58;101433.13;5039332;28;20053;-58
2021/11/25 01:06:18;;;;;;;16.08;9.38;;;;;;;7.44;56.33;101436.63;5052412;28;20052;-64
2021/11/25 01:08:45;;;;;;;13.98;9.30;;;;;;;7.39;56.42;101433.31;5052323;28;20048;-66
2021/11/25 01:11:32;;;;;;;13.95;8.48;;;;;;;7.38;56.34;101439.44;5052386;28;20052;-59
2021/11/25 01:13:58;;;;;;;16.75;9.27;;;;;;;7.36;56.34;101438.63;5052424;28;20072;-59
2021/11/25 01:16:25;;;;;;;14.00;8.85;;;;;;;7.33;56.30;101438.72;5052350;28;20045;-67
2021/11/25 01:18:52;;;;;;;10.68;8.02;;;;;;;7.29;56.50;101426.69;5045097;28;20045;-58
2021/11/25 01:21:18;;;;;;;13.60;9.27;;;;;;;7.28;56.17;101425.81;5051135;28;20059;-58
2021/11/25 01:23:45;;;;;;;16.98;8.40;;;;;;;7.28;56.05;101412.75;5052087;28;20382;-60
2021/11/25 01:26:12;;;;;;;12.00;8.38;;;;;;;7.26;55.93;101413.72;5052128;28;20041;-58
2021/11/25 01:28:39;;;;;;;13.13;7.95;;;;;;;7.25;56.05;101410.25;5052407;28;20072;-59
2021/11/25 01:31:05;;;;;;;14.57;8.95;;;;;;;7.23;55.83;101396.41;5052137;28;20049;-59
2021/11/25 01:33:32;;;;;;;15.55;8.63;;;;;;;7.24;55.96;101394.63;5052124;28;20045;-66
2021/11/25 01:36:00;;;;;;;12.75;8.02;;;;;;;7.23;55.84;101382.50;5048682;28;20052;-58
2021/11/25 01:38:28;;;;;;;13.15;8.85;;;;;;;7.21;55.94;101374.69;5036989;28;20045;-60
2021/11/25 01:40:55;;;;;;;14.07;8.13;;;;;;;7.19;55.79;101369.53;5043795;28;20049;-59
2021/11/25 01:43:25;;;;;;;10.95;7.43;;;;;;;7.21;55.76;101356.44;5046382;28;20527;-59
2021/11/25 01:45:54;;;;;;;12.73;8.52;;;;;;;7.23;55.51;101348.56;5052276;28;20492;-60
2021/11/25 01:48:22;;;;;;;11.07;7.55;;;;;;;7.26;55.38;101340.63;5052120;28;20126;-59
2021/11/25 01:50:49;;;;;;;11.73;7.15;;;;;;;7.27;55.07;101337.97;5051817;28;20516;-61
2021/11/25 01:53:18;;;;;;;13.02;8.77;;;;;;;7.28;55.09;101342.28;5043929;28;20060;-58
2021/11/25 01:55:45;;;;;;;10.18;7.00;;;;;;;7.29;54.70;101335.31;5051911;28;20072;-59
2021/11/25 01:58:12;;;;;;;10.68;7.20;;;;;;;7.30;54.66;101335.25;5051832;28;20094;-59
2021/11/25 02:00:48;;;;;;;10.10;7.28;;;;;;;7.35;54.52;101335.09;5051736;28;20089;-59
2021/11/25 02:03:16;;;;;;;10.38;6.63;;;;;;;7.37;54.41;101335.06;5051788;28;20131;-59
2021/11/25 02:05:43;;;;;;;10.07;7.15;;;;;;;7.35;54.38;101328.13;5051550;28;20057;-65
2021/11/25 02:08:11;;;;;;;16.92;7.78;;;;;;;7.35;54.01;101335.09;5051650;28;20041;-59
2021/11/25 02:10:42;;;;;;;12.07;7.25;;;;;;;7.35;53.96;101335.09;5051146;28;20045;-59
2021/11/25 02:13:09;;;;;;;10.63;6.95;;;;;;;7.35;53.79;101322.03;5051818;28;20132;-59
2021/11/25 02:15:37;;;;;;;11.57;7.78;;;;;;;7.33;53.78;101323.88;5051925;28;20052;-59
2021/11/25 02:18:10;;;;;;;11.93;7.43;;;;;;;7.27;53.88;101316.22;5051842;28;20045;-62
2021/11/25 02:20:42;;;;;;;9.50;7.43;;;;;;;7.27;53.73;101319.69;5051962;28;20052;-59
2021/11/25 02:23:12;;;;;;;10.48;7.00;;;;;;;7.27;53.78;101316.22;5051443;28;20049;-64
2021/11/25 02:25:39;;;;;;;10.57;7.43;;;;;;;7.25;53.89;101316.28;5050574;28;20130;-58
2021/11/25 02:28:06;;;;;;;11.00;7.07;;;;;;;7.25;54.15;101313.69;5051749;28;20045;-60
2021/11/25 02:30:38;;;;;;;9.43;6.65;;;;;;;7.23;53.91;101310.25;5051903;28;20458;-59
2021/11/25 02:33:05;;;;;;;11.05;6.93;;;;;;;7.23;54.10;101306.81;5051547;28;20041;-62
2021/11/25 02:35:35;;;;;;;10.30;7.05;;;;;;;7.24;53.89;101305.88;5051420;28;20045;-62
2021/11/25 02:38:02;;;;;;;10.70;6.43;;;;;;;7.24;54.01;101304.13;5051180;28;20051;-59
2021/11/25 02:40:33;;;;;;;8.93;6.57;;;;;;;7.21;53.96;101312.06;5046621;28;20049;-58
2021/11/25 02:43:05;;;;;;;13.25;6.93;;;;;;;7.14;54.30;101305.34;5036988;28;20049;-58
2021/11/25 02:45:53;;;;;;;10.48;6.72;;;;;;;7.09;54.57;101317.69;5049780;28;20047;-59
2021/11/25 02:48:23;;;;;;;9.35;6.70;;;;;;;7.07;54.81;101309.91;5051359;28;20486;-67
2021/11/25 02:50:52;;;;;;;8.75;6.53;;;;;;;7.06;54.88;101303.00;5054343;28;20037;-58
2021/11/25 02:53:29;;;;;;;9.65;7.22;;;;;;;7.06;54.78;101287.34;5055227;28;20059;-58
2021/11/25 02:55:57;;;;;;;12.45;7.65;;;;;;;7.08;55.01;101271.63;5054889;28;20045;-59
2021/11/25 02:58:24;;;;;;;10.52;7.35;;;;;;;7.07;54.92;101268.16;5053792;28;20132;-59
2021/11/25 03:00:56;;;;;;;10.70;7.18;;;;;;;7.07;55.04;101265.53;5055066;28;20037;-63
2021/11/25 03:03:23;;;;;;;11.02;6.75;;;;;;;7.06;55.01;101269.06;5054997;28;20456;-62
2021/11/25 03:05:51;;;;;;;11.10;6.80;;;;;;;7.05;54.97;101258.66;5054555;28;20453;-66
2021/11/25 03:08:21;;;;;;;9.57;6.60;;;;;;;7.05;55.10;101259.53;5054544;28;20203;-58
2021/11/25 03:10:53;;;;;;;9.23;6.43;;;;;;;7.03;55.35;101246.53;5054785;28;20101;-59
2021/11/25 03:13:27;;;;;;;10.55;6.95;;;;;;;7.05;55.37;101243.00;5054689;28;20064;-58
2021/11/25 03:15:54;;;;;;;10.43;6.68;;;;;;;7.07;55.45;101247.25;5051824;28;20041;-59
2021/11/25 03:18:21;;;;;;;9.23;6.60;;;;;;;7.11;55.47;101240.19;5054647;28;20045;-58
2021/11/25 03:20:52;;;;;;;11.00;6.70;;;;;;;7.13;55.59;101236.63;5054571;28;20044;-67
2021/11/25 03:23:21;;;;;;;9.70;6.35;;;;;;;7.14;55.42;101243.56;5054280;28;20459;-58
2021/11/25 03:25:49;;;;;;;9.63;5.75;;;;;;;7.15;55.57;101239.22;5054561;28;20547;-59
2021/11/25 03:28:16;;;;;;;9.73;6.80;;;;;;;7.14;55.71;101240.09;5054463;28;20037;-58
2021/11/25 03:30:43;;;;;;;11.27;6.70;;;;;;;7.12;56.08;101241.91;5050258;28;20542;-59
2021/11/25 03:33:11;;;;;;;11.32;6.32;;;;;;;7.13;56.26;101236.63;5054195;28;20041;-59
2021/11/25 03:35:39;;;;;;;11.60;6.30;;;;;;;7.12;56.21;101242.78;5054439;28;20504;-59
2021/11/25 03:38:07;;;;;;;9.32;6.55;;;;;;;7.13;56.25;101234.00;5054095;28;20037;-59
2021/11/25 03:40:34;;;;;;;10.13;6.70;;;;;;;7.16;56.24;101239.16;5048159;28;20045;-59
2021/11/25 03:43:00;;;;;;;10.35;6.30;;;;;;;7.19;55.97;101232.97;5077674;28;20061;-58
2021/11/25 03:45:27;;;;;;;10.02;6.07;;;;;;;7.23;55.82;101237.16;5053958;28;20041;-62
2021/11/25 03:47:54;;;;;;;8.57;6.00;;;;;;;7.25;55.70;101234.50;5043536;28;20050;-59
2021/11/25 03:50:21;;;;;;;10.95;6.47;;;;;;;7.29;55.43;101239.56;5049924;28;20386;-59
2021/11/25 03:52:47;;;;;;;8.73;5.95;;;;;;;7.31;55.45;101240.38;5054168;28;20448;-59
2021/11/25 03:55:18;;;;;;;9.43;6.38;;;;;;;7.33;55.65;101237.72;5053831;28;20060;-59
2021/11/25 03:57:46;;;;;;;8.75;6.40;;;;;;;7.37;55.56;101234.06;5054192;28;20049;-62
2021/11/25 04:00:16;;;;;;;10.00;6.25;;;;;;;7.36;56.06;101232.38;5053822;28;20417;-67
2021/11/25 04:02:44;;;;;;;9.68;6.45;;;;;;;7.38;56.20;101229.69;5050842;28;20048;-62
2021/11/25 04:05:12;;;;;;;8.55;6.45;;;;;;;7.40;56.07;101227.88;5046422;28;20053;-59
2021/11/25 04:07:40;;;;;;;10.00;6.15;;;;;;;7.40;56.32;101231.34;5050124;28;20069;-59
2021/11/25 04:10:08;;;;;;;8.85;6.50;;;;;;;7.45;56.42;101228.56;5050168;28;20045;-58
2021/11/25 04:12:35;;;;;;;7.68;5.68;;;;;;;7.45;56.78;101218.13;5050384;28;20486;-58
2021/11/25 04:15:04;;;;;;;10.95;7.13;;;;;;;7.45;57.05;101207.69;5050363;28;20048;-59
2021/11/25 04:17:31;;;;;;;10.82;6.82;;;;;;;7.42;57.18;101202.59;5049947;28;20075;-58
2021/11/25 04:19:58;;;;;;;11.63;6.53;;;;;;;7.43;57.30;101205.13;5050280;28;20383;-58
2021/11/25 04:22:25;;;;;;;12.43;6.72;;;;;;;7.44;57.41;101211.19;5044690;28;20053;-58
2021/11/25 04:24:53;;;;;;;11.77;7.00;;;;;;;7.47;57.20;101209.34;5036544;28;20052;-59
2021/11/25 04:27:21;;;;;;;11.68;7.00;;;;;;;7.47;57.13;101204.13;5049994;28;20044;-63
2021/11/25 04:30:00;;;;;;;9.93;7.20;;;;;;;7.47;57.34;101196.28;5049188;28;20047;-58
2021/11/25 04:35:28;;;;;;;9.60;7.32;;;;;;;7.53;57.25;101195.22;5037453;28;20410;-58
2021/11/25 04:38:01;;;;;;;17.00;7.78;;;;;;;7.55;57.42;101196.00;5040829;28;20075;-59
2021/11/25 04:40:35;;;;;;;12.10;7.00;;;;;;;7.56;57.49;101194.25;5045172;28;20132;-58
2021/11/25 04:43:04;;;;;;;9.80;6.75;;;;;;;7.56;57.62;101195.09;5041467;28;20045;-59
2021/11/25 04:45:32;;;;;;;11.05;6.88;;;;;;;7.58;57.93;101187.19;5049529;28;20045;-58
2021/11/25 04:47:59;;;;;;;10.05;6.78;;;;;;;7.57;58.12;101175.91;5049657;28;20053;-67
2021/11/25 04:50:26;;;;;;;9.32;6.45;;;;;;;7.56;58.28;101174.19;5049305;28;20045;-65
2021/11/25 04:52:53;;;;;;;11.70;6.72;;;;;;;7.58;58.56;101179.34;5048936;28;20041;-62
2021/11/25 04:55:20;;;;;;;12.05;7.10;;;;;;;7.58;58.64;101175.00;5049431;28;20041;-61
2021/11/25 04:57:46;;;;;;;13.68;8.05;;;;;;;7.60;58.59;101170.56;5049709;28;20052;-60
2021/11/25 05:00:14;;;;;;;10.88;7.47;;;;;;;7.63;58.72;101172.19;5049461;28;20091;-58
2021/11/25 05:02:42;;;;;;;14.25;7.85;;;;;;;7.64;58.79;101172.16;5049116;28;20040;-58
2021/11/25 05:05:09;;;;;;;14.55;7.22;;;;;;;7.67;59.01;101186.88;5049296;28;20135;-58
2021/11/25 05:07:36;;;;;;;13.60;7.35;;;;;;;7.66;59.20;101182.56;5048954;28;20037;-59
2021/11/25 05:10:06;;;;;;;11.57;7.13;;;;;;;7.68;59.17;101176.38;5042540;28;20140;-61
2021/11/25 05:12:33;;;;;;;10.13;7.07;;;;;;;7.71;59.27;101166.69;5045516;28;20400;-67
2021/11/25 05:15:00;;;;;;;9.60;5.85;;;;;;;7.75;59.10;101170.91;5049157;28;20508;-59
2021/11/25 05:17:27;;;;;;;4.80;4.07;;;;;;;7.83;58.24;101163.63;5048872;28;20128;-67
2021/11/25 05:19:53;;;;;;;6.72;3.95;;;;;;;7.89;57.23;101163.38;5042158;28;20042;-59
2021/11/25 05:22:20;;;;;;;7.97;4.55;;;;;;;7.95;56.34;101162.31;5045499;28;20094;-58
2021/11/25 05:24:47;;;;;;;10.13;4.15;;;;;;;8.01;55.32;101159.44;5049029;28;20053;-58
2021/11/25 05:27:14;;;;;;;6.15;3.25;;;;;;;8.05;54.75;101160.16;5044434;28;20065;-60
2021/11/25 05:29:40;;;;;;;7.32;3.80;;;;;;;8.08;54.15;101162.69;5049070;28;20049;-58
2021/11/25 05:32:08;;;;;;;9.85;4.95;;;;;;;8.13;53.61;101155.50;5049000;28;20053;-64
2021/11/25 05:34:35;;;;;;;6.93;3.95;;;;;;;8.14;53.43;101154.59;5048774;28;20045;-59
2021/11/25 05:37:02;;;;;;;9.15;4.30;;;;;;;8.16;52.58;101160.59;5048779;28;20041;-59
2021/11/25 05:39:29;;;;;;;7.13;4.57;;;;;;;8.18;52.16;101153.56;5048422;28;20261;-58
2021/11/25 05:41:56;;;;;;;7.28;4.60;;;;;;;8.19;52.01;101157.88;5034853;28;20049;-58
2021/11/25 05:44:22;;;;;;;8.25;4.70;;;;;;;8.20;51.80;101149.09;5039161;28;20059;-58
2021/11/25 05:46:49;;;;;;;7.78;4.75;;;;;;;8.21;51.43;101148.19;5029532;28;20425;-59
2021/11/25 05:49:16;;;;;;;7.13;4.90;;;;;;;8.25;51.14;101149.78;5048845;28;20128;-59
2021/11/25 05:51:43;;;;;;;10.88;5.63;;;;;;;8.26;51.31;101146.25;5035273;28;20053;-62
2021/11/25 05:54:09;;;;;;;8.35;4.97;;;;;;;8.26;51.24;101138.41;5034352;28;20060;-62
2021/11/25 05:56:36;;;;;;;9.85;5.55;;;;;;;8.29;51.25;101133.06;5031519;28;20045;-58
2021/11/25 05:59:04;;;;;;;7.72;4.75;;;;;;;8.31;51.07;101133.00;5033987;28;20037;-60
2021/11/25 06:01:30;;;;;;;9.65;5.47;;;;;;;8.33;51.04;101128.56;5029192;28;20053;-59
2021/11/25 06:04:03;;;;;;;7.97;4.80;;;;;;;8.33;50.99;101118.09;5032062;28;20049;-60
2021/11/25 06:06:39;;;;;;;10.73;5.20;;;;;;;8.33;50.75;101126.78;5029165;28;20050;-62
2021/11/25 06:09:08;;;;;;;7.05;5.05;;;;;;;8.36;50.56;101133.66;5030034;28;20057;-60
2021/11/25 06:11:35;;;;;;;11.65;6.20;;;;;;;8.36;50.35;101124.97;5036779;28;20057;-59
2021/11/25 06:14:01;;;;;;;16.77;9.15;;;;;;;8.36;50.24;101123.19;5037433;28;20513;-59
2021/11/25 06:16:28;;;;;;;14.90;8.68;;;;;;;8.38;49.99;101128.34;5042668;28;20045;-66
2021/11/25 06:18:55;;;;;;;15.32;8.30;;;;;;;8.38;49.96;101118.75;5031606;28;20875;-60
2021/11/25 06:21:22;;;;;;;10.25;5.35;;;;;;;8.37;49.85;101121.41;5041559;28;20052;-61
2021/11/25 06:23:48;;;;;;;6.80;4.22;;;;;;;8.38;49.89;101120.50;5030997;28;20509;-60
2021/11/25 06:26:15;;;;;;;8.75;4.60;;;;;;;8.40;49.60;101121.31;5037698;28;20045;-68
2021/11/25 06:28:42;;;;;;;5.78;3.47;;;;;;;8.41;49.56;101120.41;5035439;28;20608;-60
2021/11/25 06:31:09;;;;;;;6.88;4.25;;;;;;;8.44;49.43;101125.50;5036728;28;20050;-60
2021/11/25 06:33:35;;;;;;;7.45;4.22;;;;;;;8.44;49.31;101125.50;5035286;28;20042;-64
2021/11/25 06:36:02;;;;;;;9.68;3.85;;;;;;;8.45;49.02;101120.19;5035593;28;20076;-59
2021/11/25 06:38:29;;;;;;;6.78;4.20;;;;;;;8.48;49.20;101122.72;5048244;28;20058;-72
2021/11/25 06:40:55;;;;;;;8.75;4.40;;;;;;;8.50;48.67;101110.41;5034460;28;20437;-60
2021/11/25 06:43:24;;;;;;;9.63;4.53;;;;;;;8.51;48.48;101111.28;5032704;28;20052;-61
2021/11/25 06:45:51;;;;;;;5.50;3.97;;;;;;;8.52;48.45;101114.72;5037676;28;20042;-60
2021/11/25 06:48:18;;;;;;;9.07;4.28;;;;;;;8.51;48.37;101121.75;5032622;28;20060;-60
2021/11/25 06:50:44;;;;;;;9.45;4.70;;;;;;;8.53;48.14;101121.66;5032761;28;20045;-60
2021/11/25 06:53:11;;;;;;;9.95;4.43;;;;;;;8.46;48.25;101129.78;5032538;28;20056;-64
2021/11/25 06:55:38;;;;;;;8.55;4.22;;;;;;;8.52;47.95;101120.84;5033891;28;20401;-60
2021/11/25 06:58:05;;;;;;;9.27;4.90;;;;;;;8.53;47.85;101112.03;5031673;28;20065;-61
2021/11/25 07:00:32;;;;;;;10.70;4.75;;;;;;;8.54;47.71;101111.13;5034249;28;20049;-65
2021/11/25 07:02:59;;;;;;;8.88;4.90;;;;;;;8.56;47.58;101111.94;5031992;28;20048;-60
2021/11/25 07:05:27;;;;;;;7.80;4.85;;;;;;;8.57;47.54;101113.63;5032972;28;20572;-60
2021/11/25 07:07:55;;;;;;;9.18;5.00;;;;;;;8.59;47.37;101116.19;5031245;28;20052;-60
2021/11/25 07:10:22;;;;;;;9.90;5.85;;;;;;;8.56;47.38;101111.94;5032125;28;20440;-61
2021/11/25 07:12:49;;;;;;;8.10;5.28;;;;;;;8.59;47.14;101110.94;5034795;28;20068;-61
2021/11/25 07:15:18;;;;;;;9.07;5.13;;;;;;;8.60;47.04;101117.88;5039699;28;20046;-61
2021/11/25 07:17:46;;;;;;;6.78;4.57;;;;;;;8.60;47.08;101116.13;5047456;28;20068;-70
2021/11/25 07:20:14;;;;;;;8.43;5.38;;;;;;;8.63;46.90;101107.28;5033766;28;20068;-61
2021/11/25 07:22:42;;;;;;;6.53;4.53;;;;;;;8.62;46.90;101114.28;5035484;28;20053;-62
2021/11/25 07:25:11;;;;;;;8.50;4.72;;;;;;;8.66;46.78;101118.47;5033573;28;20053;-70
2021/11/25 07:27:40;;;;;;;8.23;4.65;;;;;;;8.66;46.59;101117.63;5034464;28;20067;-63
2021/11/25 07:30:10;;;;;;;7.72;4.53;;;;;;;8.68;46.52;101109.72;5031292;28;20053;-61
2021/11/25 07:32:37;;;;;;;8.68;4.63;;;;;;;8.68;46.50;101107.09;5021664;28;20065;-61
2021/11/25 07:35:06;;;;;;;10.90;5.28;;;;;;;8.65;46.59;101103.69;5030886;28;20045;-60
2021/11/25 07:37:33;;;;;;;8.40;5.03;;;;;;;8.68;46.43;101104.47;5029985;28;20056;-60
2021/11/25 07:40:00;;;;;;;8.88;5.10;;;;;;;8.70;46.26;101095.66;5030669;28;20477;-62
2021/11/25 07:42:26;;;;;;;10.10;4.28;;;;;;;8.72;46.41;101090.34;5036779;28;20495;-67
2021/11/25 07:44:53;;;;;;;9.52;5.13;;;;;;;8.72;46.18;101099.03;5037787;28;20050;-62
2021/11/25 07:47:22;;;;;;;9.05;4.88;;;;;;;8.72;46.20;101106.03;5039412;28;20048;-63
2021/11/25 07:49:49;;;;;;;7.65;4.32;;;;;;;8.75;46.14;101101.53;5036002;28;20045;-61
2021/11/25 07:52:16;;;;;;;7.00;4.50;;;;;;;8.76;46.22;101092.78;5039243;28;20044;-62
2021/11/25 07:54:43;;;;;;;6.45;4.80;;;;;;;8.78;46.32;101100.53;5040120;28;20041;-61
2021/11/25 07:57:10;;;;;;;7.43;4.55;;;;;;;8.77;46.24;101091.84;5041687;28;20045;-62
2021/11/25 07:59:37;;;;;;;7.70;5.10;;;;;;;8.80;46.09;101090.88;5045873;28;20052;-61
2021/11/25 08:02:03;;;;;;;9.30;5.35;;;;;;;8.80;46.26;101083.03;5040149;28;20045;-62
2021/11/25 08:04:31;;;;;;;10.73;6.00;;;;;;;8.80;46.23;101086.47;5044996;28;20387;-61
2021/11/25 08:06:57;;;;;;;7.82;5.35;;;;;;;8.81;46.26;101077.72;5041635;28;20056;-61
2021/11/25 08:09:24;;;;;;;7.85;5.20;;;;;;;8.83;46.17;101082.88;5043312;28;20076;-66
2021/11/25 08:11:51;;;;;;;9.63;5.22;;;;;;;8.85;46.24;101072.34;5039310;28;20045;-67
2021/11/25 08:14:17;;;;;;;9.98;6.13;;;;;;;8.88;46.24;101075.66;5042492;28;20063;-61
2021/11/25 08:16:45;;;;;;;12.30;6.95;;;;;;;8.86;46.33;101068.81;5045044;28;20135;-62
2021/11/25 08:19:13;;;;;;;8.38;5.57;;;;;;;8.89;46.38;101073.88;5040795;28;20486;-63
2021/11/25 08:21:41;;;;;;;7.90;5.75;;;;;;;8.92;46.37;101077.22;5044729;28;20076;-61
2021/11/25 08:24:08;;;;;;;8.82;5.25;;;;;;;8.91;46.50;101078.16;5040030;28;20045;-61
2021/11/25 08:26:35;;;;;;;10.70;6.47;;;;;;;8.92;46.75;101072.00;5038946;28;20060;-60
2021/11/25 08:29:02;;;;;;;11.57;6.10;;;;;;;8.91;46.93;101070.31;5039309;28;20049;-60
2021/11/25 08:31:29;;;;;;;10.52;6.20;;;;;;;8.92;46.92;101058.06;5047830;28;20053;-60
2021/11/25 08:33:56;;;;;;;10.02;5.63;;;;;;;8.95;46.82;101071.00;5047418;28;20049;-61
2021/11/25 08:36:23;;;;;;;17.83;7.45;;;;;;;8.95;46.59;101061.41;5041534;28;20072;-63
2021/11/25 08:38:50;;;;;;;10.18;5.57;;;;;;;8.95;46.58;101065.78;5044670;28;20049;-61
2021/11/25 08:41:16;;;;;;;9.65;5.28;;;;;;;8.98;46.43;101068.28;5033680;28;20049;-62
2021/11/25 08:43:43;;;;;;;10.60;5.30;;;;;;;9.01;46.52;101069.91;5036161;28;20056;-61
2021/11/25 08:46:10;;;;;;;10.70;5.50;;;;;;;8.99;46.27;101070.81;5049041;28;20037;-66
2021/11/25 08:48:37;;;;;;;9.13;5.68;;;;;;;9.04;46.28;101067.13;5048982;28;20076;-63
2021/11/25 08:51:04;;;;;;;8.38;5.75;;;;;;;9.09;46.43;101059.91;5049432;28;20401;-60
2021/11/25 08:53:31;;;;;;;7.90;5.20;;;;;;;9.12;46.33;101054.56;5049046;28;20049;-61
2021/11/25 08:55:58;;;;;;;8.32;5.60;;;;;;;9.17;46.27;101052.59;5049293;28;20406;-68
2021/11/25 08:58:25;;;;;;;8.77;4.75;;;;;;;9.20;46.24;101054.22;5039546;28;20674;-61
2021/11/25 09:00:52;;;;;;;7.82;5.05;;;;;;;9.25;46.38;101058.28;5046671;28;20493;-61
2021/11/25 09:03:19;;;;;;;11.15;5.30;;;;;;;9.30;46.59;101050.25;5029359;28;20116;-60
2021/11/25 09:05:46;;;;;;;8.30;5.43;;;;;;;9.30;46.87;101052.84;5031777;28;20106;-61
2021/11/25 09:08:13;;;;;;;8.20;5.35;;;;;;;9.30;47.10;101051.06;5028534;28;20082;-60
2021/11/25 09:10:40;;;;;;;8.05;5.35;;;;;;;9.30;46.99;101042.38;5029473;28;20461;-60
2021/11/25 09:13:07;;;;;;;8.60;5.28;;;;;;;9.25;47.19;101044.38;5031677;28;20051;-62
2021/11/25 09:15:34;;;;;;;9.32;5.10;;;;;;;9.23;47.35;101036.59;5029641;28;20064;-60
2021/11/25 09:18:02;;;;;;;8.40;5.53;;;;;;;9.24;47.41;101038.28;5044997;28;20045;-61
2021/11/25 09:20:31;;;;;;;9.43;5.00;;;;;;;9.23;47.62;101040.97;5043466;28;20053;-70
2021/11/25 09:23:03;;;;;;;8.93;5.38;;;;;;;9.20;47.77;101043.72;5043345;28;20044;-60
2021/11/25 09:25:31;;;;;;;9.73;5.40;;;;;;;9.21;47.84;101038.41;5035559;28;20053;-60
2021/11/25 09:27:59;;;;;;;9.35;6.05;;;;;;;9.20;47.66;101036.72;5033150;28;20041;-66
2021/11/25 09:30:27;;;;;;;10.18;4.97;;;;;;;9.23;47.68;101031.34;5031632;28;20061;-60
2021/11/25 09:32:57;;;;;;;9.68;5.30;;;;;;;9.24;47.44;101026.94;5035886;28;20052;-61
2021/11/25 09:35:24;;;;;;;7.85;4.93;;;;;;;9.21;47.85;101020.09;5041382;28;20444;-60
2021/11/25 09:37:51;;;;;;;7.55;5.05;;;;;;;9.24;47.82;101026.94;5031717;28;20046;-61
2021/11/25 09:40:23;;;;;;;7.47;5.20;;;;;;;9.19;48.21;101023.69;5031341;28;20055;-61
2021/11/25 09:42:51;;;;;;;6.22;4.65;;;;;;;9.20;48.62;101023.63;5038583;28;20052;-62
2021/11/25 09:45:22;;;;;;;7.70;5.45;;;;;;;9.19;49.09;101026.31;5048229;28;20044;-61
2021/11/25 09:47:55;;;;;;;8.02;5.28;;;;;;;9.15;49.43;101018.63;5044484;28;20505;-60
2021/11/25 09:50:25;;;;;;;7.20;4.75;;;;;;;9.12;49.82;101013.50;5044280;28;20052;-60
2021/11/25 09:52:55;;;;;;;7.20;4.88;;;;;;;9.10;50.00;101015.38;5048236;28;20044;-60
2021/11/25 09:55:22;;;;;;;7.65;5.00;;;;;;;9.08;50.41;101009.34;5048558;28;20417;-62
2021/11/25 09:57:50;;;;;;;8.63;5.10;;;;;;;9.10;50.75;101006.66;5048785;28;20045;-60
2021/11/25 10:00:19;;;;;;;11.00;4.63;;;;;;;9.06;51.09;101000.69;5050718;28;20048;-60
2021/11/25 10:02:46;;;;;;;8.05;5.28;;;;;;;9.08;51.14;101000.66;5051356;28;20068;-63
2021/11/25 10:05:14;;;;;;;7.57;5.13;;;;;;;9.06;51.38;100992.84;5051669;28;20459;-61
2021/11/25 10:07:42;;;;;;;9.85;5.90;;;;;;;9.09;51.59;100991.84;5052082;28;20037;-63
2021/11/25 10:10:29;;;;;;;9.63;4.97;;;;;;;9.13;51.40;100985.56;5052571;28;20113;-68
2021/11/25 10:13:14;;;;;;;8.30;5.30;;;;;;;9.13;51.55;100988.19;5035150;28;20072;-63
2021/11/25 10:15:41;;;;;;;8.10;5.18;;;;;;;9.17;51.83;100978.41;5039494;28;20045;-61
2021/11/25 10:18:14;;;;;;;10.82;5.00;;;;;;;9.15;51.96;100987.19;5045003;28;20049;-68
2021/11/25 10:20:46;;;;;;;10.30;5.70;;;;;;;9.16;52.14;100988.03;5039421;28;20050;-61
2021/11/25 10:23:19;;;;;;;8.57;5.63;;;;;;;9.17;52.51;100979.28;5045017;28;20062;-71
2021/11/25 10:25:48;;;;;;;11.13;6.07;;;;;;;9.17;52.84;100974.03;5044713;28;20429;-62
2021/11/25 10:28:19;;;;;;;8.93;5.78;;;;;;;9.18;53.06;100967.00;5044995;28;20096;-61
2021/11/25 10:30:50;;;;;;;11.10;5.80;;;;;;;9.19;53.50;100966.94;5042975;28;20101;-60
2021/11/25 10:33:27;;;;;;;9.98;5.75;;;;;;;9.19;53.96;100960.84;5044708;28;20080;-63
2021/11/25 10:38:56;;;;;;;13.48;7.80;;;;;;;9.24;54.73;100954.50;5044124;28;20119;-61
2021/11/25 10:41:24;;;;;;;12.75;7.50;;;;;;;9.26;55.13;100950.03;5035621;28;20128;-70
2021/11/25 10:44:10;;;;;;;11.00;6.82;;;;;;;9.25;55.37;100943.09;5050254;28;20045;-61
2021/11/25 10:46:55;;;;;;;10.27;6.75;;;;;;;9.20;55.63;100939.00;5051492;28;20067;-69
2021/11/25 10:49:35;;;;;;;7.97;5.90;;;;;;;9.19;55.86;100938.13;5043181;28;20512;-60
2021/11/25 10:52:12;;;;;;;8.18;5.90;;;;;;;9.15;56.04;100923.50;5033088;28;20037;-61
2021/11/25 10:54:51;;;;;;;9.98;6.43;;;;;;;9.17;56.15;100919.06;5040202;28;20073;-66
2021/11/25 10:57:20;;;;;;;10.27;6.60;;;;;;;9.17;56.28;100924.28;5047583;28;20131;-65
2021/11/25 10:59:49;;;;;;;10.18;5.85;;;;;;;9.18;56.55;100920.75;5043188;28;20547;-63
2021/11/25 11:02:29;;;;;;;9.02;6.05;;;;;;;9.19;56.62;100905.88;5043422;28;20053;-68
2021/11/25 11:05:01;;;;;;;9.32;6.35;;;;;;;9.19;56.98;100904.09;5042799;28;20099;-61
2021/11/25 11:07:36;;;;;;;8.70;5.97;;;;;;;9.18;57.39;100899.81;5040019;28;20136;-72
2021/11/25 11:10:28;;;;;;;8.43;5.93;;;;;;;9.20;57.53;100892.72;5033321;28;20203;-61
2021/11/25 11:15:48;;;;;;;8.93;6.13;;;;;;;9.21;57.73;100877.88;5031708;28;20069;-60
2021/11/25 11:20:47;;;;;;;7.50;5.30;;;;;;;9.28;58.26;100869.63;5032525;28;20052;-61
2021/11/25 11:23:20;;;;;;;8.98;5.70;;;;;;;9.26;58.72;100868.00;5030576;28;20498;-61
2021/11/25 11:25:49;;;;;;;10.27;6.13;;;;;;;9.22;59.08;100869.94;5030913;28;20045;-61
2021/11/25 11:28:16;;;;;;;11.57;7.28;;;;;;;9.20;59.24;100866.53;5029815;28;20128;-72
2021/11/25 11:30:45;;;;;;;10.82;6.18;;;;;;;9.17;59.84;100869.31;5033407;28;20045;-62
2021/11/25 11:33:15;;;;;;;5.18;3.55;;;;;;;9.34;60.02;100862.38;5035412;28;20460;-61
2021/11/25 11:35:43;;;;;;;8.80;5.38;;;;;;;9.87;59.19;100848.34;5033026;28;20446;-61
2021/11/25 11:38:13;;;;;;;9.40;5.63;;;;;;;9.55;59.81;100858.69;5035108;28;20045;-60
2021/11/25 11:40:42;;;;;;;44.05;24.65;;;;;;;9.46;60.24;100862.63;5034765;28;20494;-61
2021/11/25 11:43:11;;;;;;;44.38;28.35;;;;;;;9.38;60.42;100861.31;5035644;28;20401;-62
2021/11/25 11:45:38;;;;;;;15.88;10.85;;;;;;;9.31;60.56;100851.13;5035724;28;20059;-61